Time;durP1;ratioP1;P1;durP2;ratioP2;P2;SDS_P1;SDS_P2;PMS_P1;PMS_P2;Temp;Humidity;BMP_temperature;BMP_pressure;BME280_temperature;BME280_humidity;BME280_pressure;Samples;Min_cycle;Max_cycle;Signal;HPM_P1;HPM_P2
2023/01/31 00:04:59;;;;;;;9.37;2.60;;;4.40;99.90;;;;;;10344455;28;20229;-71
2023/01/31 00:09:59;;;;;;;8.93;2.77;;;4.40;99.90;;;;;;10352177;28;20218;-70
2023/01/31 00:15:00;;;;;;;12.73;3.10;;;4.50;99.90;;;;;;10353392;28;20665;-70
2023/01/31 00:20:01;;;;;;;12.57;3.20;;;4.60;99.90;;;;;;10353502;28;20225;-71
2023/01/31 00:25:05;;;;;;;11.10;3.30;;;4.60;99.90;;;;;;10352860;28;20220;-68
2023/01/31 00:30:06;;;;;;;11.93;2.70;;;4.70;99.90;;;;;;10351479;28;20221;-69
2023/01/31 00:35:06;;;;;;;12.57;2.93;;;4.80;99.90;;;;;;10348025;28;20215;-69
2023/01/31 00:40:08;;;;;;;10.87;2.67;;;4.90;99.90;;;;;;10326295;28;20242;-68
2023/01/31 00:45:09;;;;;;;11.60;3.37;;;4.90;99.90;;;;;;10349816;28;20678;-68
2023/01/31 00:50:14;;;;;;;10.73;3.83;;;4.90;99.90;;;;;;10354257;28;20186;-71
2023/01/31 00:55:15;;;;;;;11.07;3.90;;;4.90;99.90;;;;;;10358125;28;20305;-71
2023/01/31 01:00:16;;;;;;;11.50;4.07;;;4.90;99.90;;;;;;10332673;28;20185;-67
2023/01/31 01:05:16;;;;;;;14.57;4.07;;;4.80;99.90;;;;;;10354961;28;20280;-68
2023/01/31 01:10:17;;;;;;;11.97;3.90;;;4.80;99.90;;;;;;10344742;28;20179;-69
2023/01/31 01:15:18;;;;;;;12.43;4.13;;;4.80;99.90;;;;;;10349986;28;20217;-70
2023/01/31 01:20:18;;;;;;;16.87;4.50;;;4.80;99.90;;;;;;10344649;28;20190;-68
2023/01/31 01:25:19;;;;;;;14.17;4.50;;;4.70;99.90;;;;;;10350736;28;20194;-69
2023/01/31 01:30:20;;;;;;;18.17;4.90;;;4.60;99.90;;;;;;10349067;28;20204;-69
2023/01/31 01:35:20;;;;;;;10.17;4.83;;;4.60;99.90;;;;;;10344113;28;20669;-69
2023/01/31 01:40:21;;;;;;;13.13;4.83;;;4.50;99.90;;;;;;10347990;28;20189;-69
2023/01/31 01:45:22;;;;;;;14.50;5.13;;;4.50;99.90;;;;;;10343275;28;20669;-70
2023/01/31 01:50:35;;;;;;;11.37;5.37;;;4.40;99.90;;;;;;10356133;28;20185;-70
2023/01/31 01:56:00;;;;;;;15.60;5.97;;;4.30;99.90;;;;;;10349955;28;20217;-70
2023/01/31 02:01:04;;;;;;;12.53;5.53;;;4.10;99.90;;;;;;10346404;28;20232;-69
2023/01/31 02:06:05;;;;;;;17.13;5.93;;;3.90;99.90;;;;;;10333407;28;20240;-69
2023/01/31 02:11:23;;;;;;;15.47;6.27;;;3.80;99.90;;;;;;10347505;28;20229;-68
2023/01/31 02:16:24;;;;;;;11.60;6.07;;;3.60;99.90;;;;;;10350808;28;20233;-68
2023/01/31 02:22:04;;;;;;;10.27;5.47;;;3.60;99.90;;;;;;10342900;28;20242;-68
2023/01/31 02:27:27;;;;;;;14.93;5.53;;;3.80;99.90;;;;;;10303261;28;20218;-67
2023/01/31 02:32:55;;;;;;;13.03;5.23;;;3.90;99.90;;;;;;10357551;28;20224;-68
2023/01/31 02:38:11;;;;;;;15.57;5.33;;;4.00;99.90;;;;;;10349719;28;20206;-68
2023/01/31 02:44:57;;;;;;;11.37;4.57;;;4.10;99.90;;;;;;10344094;28;20237;-70
2023/01/31 02:49:36;;;;;;;11.87;4.57;;;4.00;99.90;;;;;;10350040;28;20217;-68
2023/01/31 02:59:57;;;;;;;12.37;4.80;;;4.10;99.90;;;;;;10354438;28;20210;-69
2023/01/31 03:04:57;;;;;;;11.83;4.57;;;4.10;99.90;;;;;;10357652;28;20313;-69
2023/01/31 03:10:22;;;;;;;17.03;4.93;;;4.10;99.90;;;;;;10349040;28;20300;-69
2023/01/31 03:21:20;;;;;;;10.97;3.83;;;4.00;99.90;;;;;;10351854;28;20217;-69
2023/01/31 03:26:22;;;;;;;13.20;4.70;;;3.90;99.90;;;;;;10349176;28;20223;-71
2023/01/31 03:31:28;;;;;;;16.67;5.07;;;3.60;99.90;;;;;;10353931;28;20234;-68
2023/01/31 03:36:37;;;;;;;15.57;4.60;;;3.40;99.90;;;;;;10347974;28;20841;-68
2023/01/31 03:41:55;;;;;;;8.50;4.30;;;3.40;99.90;;;;;;10347840;28;20230;-69
2023/01/31 03:47:02;;;;;;;12.00;4.37;;;3.40;99.90;;;;;;10350634;28;20604;-69
2023/01/31 03:52:06;;;;;;;11.73;4.53;;;3.40;99.90;;;;;;10350866;28;20242;-67
2023/01/31 03:57:17;;;;;;;14.77;4.73;;;3.50;99.90;;;;;;10351903;28;20299;-69
2023/01/31 04:02:19;;;;;;;11.67;4.47;;;3.60;99.90;;;;;;10338194;28;20222;-69
2023/01/31 04:07:21;;;;;;;12.47;4.10;;;3.60;99.90;;;;;;10357323;28;20291;-72
2023/01/31 04:12:21;;;;;;;15.37;4.60;;;3.50;99.90;;;;;;10345825;28;20912;-69
2023/01/31 04:17:25;;;;;;;16.20;4.70;;;3.40;99.90;;;;;;10352804;28;20265;-70
2023/01/31 04:22:25;;;;;;;13.77;4.30;;;3.40;99.90;;;;;;10346041;28;20221;-68
2023/01/31 04:27:26;;;;;;;15.77;4.80;;;3.20;99.90;;;;;;10351377;28;20221;-69
2023/01/31 04:32:27;;;;;;;8.43;4.00;;;3.10;99.90;;;;;;10352364;28;20232;-69
2023/01/31 04:37:28;;;;;;;14.07;4.73;;;2.90;99.90;;;;;;10335916;28;20302;-70
2023/01/31 04:42:28;;;;;;;14.07;4.37;;;2.80;99.90;;;;;;10360967;28;20311;-70
2023/01/31 04:47:29;;;;;;;16.20;4.70;;;2.70;99.90;;;;;;10344767;28;20264;-71
2023/01/31 04:52:29;;;;;;;15.43;4.53;;;2.80;99.90;;;;;;10352511;28;20225;-70
2023/01/31 04:57:30;;;;;;;10.90;4.00;;;3.00;99.90;;;;;;10352902;28;20736;-70
2023/01/31 05:02:31;;;;;;;13.67;4.97;;;3.00;99.90;;;;;;10354400;28;20306;-70
2023/01/31 05:07:31;;;;;;;12.80;4.70;;;2.90;99.90;;;;;;10357269;28;20221;-70
2023/01/31 05:12:32;;;;;;;17.03;5.10;;;2.80;99.90;;;;;;10344393;28;20325;-69
2023/01/31 05:17:33;;;;;;;19.77;5.20;;;2.60;99.90;;;;;;10338908;28;20259;-69
2023/01/31 05:22:34;;;;;;;15.97;5.10;;;2.60;99.90;;;;;;10351112;28;20707;-70
2023/01/31 05:27:34;;;;;;;15.60;4.47;;;2.50;99.90;;;;;;10358032;28;20233;-70
2023/01/31 05:32:36;;;;;;;19.00;5.20;;;2.50;99.90;;;;;;10351099;28;20649;-70
2023/01/31 05:37:36;;;;;;;16.63;5.33;;;2.50;99.90;;;;;;10351413;28;20343;-71
2023/01/31 05:42:37;;;;;;;11.03;4.47;;;2.60;99.90;;;;;;10344049;28;20226;-66
2023/01/31 05:47:37;;;;;;;15.77;6.27;;;2.70;99.90;;;;;;10343180;28;20221;-67
2023/01/31 05:52:38;;;;;;;16.73;5.77;;;2.70;99.90;;;;;;10346475;28;20222;-65
2023/01/31 05:57:40;;;;;;;21.00;7.60;;;2.70;99.90;;;;;;10349295;28;20232;-65
2023/01/31 06:02:41;;;;;;;17.83;8.63;;;2.50;99.90;;;;;;10343666;28;20229;-65
2023/01/31 06:07:42;;;;;;;18.40;7.53;;;2.40;99.90;;;;;;10345253;28;20218;-65
2023/01/31 06:12:42;;;;;;;22.50;10.40;;;2.30;99.90;;;;;;10348126;28;20237;-69
2023/01/31 06:17:43;;;;;;;21.13;9.63;;;2.30;99.90;;;;;;10340875;28;20217;-69
2023/01/31 06:22:43;;;;;;;21.73;9.40;;;2.30;99.90;;;;;;10343631;28;20223;-69
2023/01/31 06:27:44;;;;;;;19.77;7.87;;;2.30;99.90;;;;;;10350094;28;20648;-68
2023/01/31 06:32:44;;;;;;;21.43;7.47;;;2.30;99.90;;;;;;10348726;28;20311;-68
2023/01/31 06:37:45;;;;;;;20.17;7.10;;;2.30;99.90;;;;;;10352635;28;20221;-68
2023/01/31 06:42:46;;;;;;;17.00;7.00;;;2.40;99.90;;;;;;10349729;28;20228;-68
2023/01/31 06:47:46;;;;;;;18.10;6.83;;;2.60;99.90;;;;;;10354057;28;20225;-69
2023/01/31 06:52:47;;;;;;;19.37;7.03;;;2.80;99.90;;;;;;10355462;28;20610;-69
2023/01/31 06:57:48;;;;;;;18.80;7.60;;;2.90;99.90;;;;;;10359326;28;20236;-68
2023/01/31 07:02:50;;;;;;;15.23;7.90;;;3.00;99.90;;;;;;10352937;28;20229;-68
2023/01/31 07:07:50;;;;;;;13.17;8.00;;;3.10;99.90;;;;;;10355529;28;20302;-68
2023/01/31 07:12:51;;;;;;;20.57;8.33;;;3.10;99.90;;;;;;10356599;28;20310;-70
2023/01/31 07:17:59;;;;;;;14.03;7.73;;;3.20;99.90;;;;;;10359425;28;20221;-70
2023/01/31 07:22:59;;;;;;;17.80;8.63;;;3.20;99.90;;;;;;10364462;28;20225;-69
2023/01/31 07:28:01;;;;;;;19.53;8.77;;;3.20;99.90;;;;;;10348358;28;20225;-69
2023/01/31 07:33:02;;;;;;;19.77;8.77;;;3.20;99.90;;;;;;10349312;28;20234;-70
2023/01/31 07:38:02;;;;;;;18.03;10.13;;;3.10;99.90;;;;;;10350262;28;20226;-68
2023/01/31 07:43:03;;;;;;;20.67;9.73;;;3.10;99.90;;;;;;10337176;28;20231;-69
2023/01/31 07:48:05;;;;;;;15.93;9.13;;;3.20;99.90;;;;;;10358535;28;20637;-70
2023/01/31 07:53:05;;;;;;;20.47;10.17;;;3.30;99.90;;;;;;10339352;28;20213;-69
2023/01/31 07:58:06;;;;;;;17.70;10.23;;;3.40;99.90;;;;;;10355306;28;20225;-68
2023/01/31 08:03:33;;;;;;;20.87;11.10;;;3.40;99.90;;;;;;10356958;28;20767;-69
2023/01/31 08:08:35;;;;;;;19.13;10.37;;;3.70;99.90;;;;;;10348034;28;20312;-69
2023/01/31 08:13:37;;;;;;;20.00;10.83;;;4.10;99.90;;;;;;10352326;28;20316;-69
2023/01/31 08:18:38;;;;;;;24.53;11.53;;;4.30;99.90;;;;;;10345951;28;20226;-69
2023/01/31 08:23:40;;;;;;;23.43;13.00;;;4.30;99.90;;;;;;10351159;28;20774;-68
2023/01/31 08:28:41;;;;;;;18.73;12.13;;;4.20;99.90;;;;;;10328050;28;20230;-67
2023/01/31 08:33:41;;;;;;;19.07;12.30;;;4.10;99.90;;;;;;10351275;28;20236;-68
2023/01/31 08:38:43;;;;;;;18.13;10.50;;;4.10;99.90;;;;;;10335063;28;20693;-69
2023/01/31 08:43:45;;;;;;;19.57;10.27;;;4.00;99.90;;;;;;10345407;28;20233;-70
2023/01/31 08:48:45;;;;;;;18.77;9.20;;;4.00;99.90;;;;;;10351610;28;20229;-69
2023/01/31 08:53:47;;;;;;;15.20;9.33;;;4.10;99.90;;;;;;10359595;28;20229;-67
2023/01/31 08:58:47;;;;;;;15.53;8.40;;;4.10;99.90;;;;;;10350199;28;20305;-68
2023/01/31 09:03:49;;;;;;;15.30;8.17;;;4.20;99.90;;;;;;10353600;28;20659;-69
2023/01/31 09:08:50;;;;;;;15.63;9.27;;;4.20;99.90;;;;;;10349263;28;20271;-69
2023/01/31 09:13:50;;;;;;;16.23;8.03;;;4.20;99.90;;;;;;10352476;28;20552;-69
2023/01/31 09:18:52;;;;;;;18.97;8.77;;;4.60;99.90;;;;;;10347968;28;20241;-68
2023/01/31 09:23:58;;;;;;;15.37;8.27;;;5.00;99.90;;;;;;10345780;28;20305;-70
2023/01/31 09:29:00;;;;;;;12.63;7.17;;;5.40;99.90;;;;;;10350622;28;20323;-69
2023/01/31 09:34:01;;;;;;;13.50;7.50;;;5.60;99.90;;;;;;10355447;28;20336;-70
2023/01/31 09:39:01;;;;;;;10.60;6.10;;;5.60;99.90;;;;;;10357119;28;20217;-68
2023/01/31 09:44:09;;;;;;;13.93;6.47;;;5.40;99.90;;;;;;10347273;28;20229;-68
2023/01/31 09:49:19;;;;;;;12.67;6.53;;;5.30;99.90;;;;;;10352426;28;20257;-67
2023/01/31 09:54:26;;;;;;;12.10;6.07;;;5.50;99.90;;;;;;10338446;28;20225;-67
2023/01/31 09:59:37;;;;;;;10.40;6.10;;;5.90;99.90;;;;;;10345330;28;20251;-68
2023/01/31 10:04:56;;;;;;;13.33;6.93;;;6.20;99.90;;;;;;10367515;28;20685;-67
2023/01/31 10:10:01;;;;;;;12.50;6.23;;;6.10;99.90;;;;;;10353624;28;20229;-68
2023/01/31 10:15:21;;;;;;;11.57;6.90;;;6.10;99.90;;;;;;10352480;28;20233;-67
2023/01/31 10:20:27;;;;;;;15.87;7.33;;;6.00;99.90;;;;;;10356456;28;20566;-68
2023/01/31 10:25:38;;;;;;;15.47;7.60;;;6.00;99.90;;;;;;10365210;28;20230;-68
2023/01/31 10:30:57;;;;;;;16.37;7.70;;;5.80;99.90;;;;;;10350473;28;20218;-68
2023/01/31 10:36:03;;;;;;;18.73;8.30;;;5.50;99.90;;;;;;10348824;28;20235;-69
2023/01/31 10:41:20;;;;;;;20.93;9.20;;;5.40;99.90;;;;;;10359676;28;20227;-68
2023/01/31 10:46:20;;;;;;;13.17;8.80;;;5.50;99.90;;;;;;10356489;28;20337;-68
2023/01/31 10:51:27;;;;;;;15.37;7.80;;;5.80;99.90;;;;;;10362999;28;20356;-68
2023/01/31 10:56:35;;;;;;;16.07;8.27;;;6.30;99.90;;;;;;10353332;28;20614;-68
2023/01/31 11:01:36;;;;;;;16.63;8.80;;;6.70;99.90;;;;;;10354228;28;20272;-68
2023/01/31 11:06:37;;;;;;;15.43;8.80;;;6.80;99.90;;;;;;10357674;28;20291;-70
2023/01/31 11:11:53;;;;;;;15.17;8.00;;;6.80;99.90;;;;;;10354882;28;20225;-69
2023/01/31 11:17:06;;;;;;;15.13;8.07;;;7.00;99.90;;;;;;10348324;28;20233;-68
2023/01/31 11:22:16;;;;;;;21.30;9.13;;;7.10;99.90;;;;;;10345303;28;20322;-67
2023/01/31 11:27:43;;;;;;;17.23;8.27;;;6.80;99.90;;;;;;10348006;28;20912;-69
2023/01/31 11:32:44;;;;;;;16.07;8.17;;;6.60;99.90;;;;;;10356347;28;20280;-68
2023/01/31 11:37:52;;;;;;;16.97;8.57;;;6.60;99.90;;;;;;10356189;28;20862;-68
2023/01/31 11:42:59;;;;;;;19.80;9.57;;;6.50;99.90;;;;;;10351500;28;20606;-69
2023/01/31 11:48:15;;;;;;;19.07;8.60;;;6.50;99.90;;;;;;10350542;28;20225;-69
2023/01/31 11:53:21;;;;;;;15.13;8.30;;;6.60;99.90;;;;;;10347922;28;20226;-69
2023/01/31 11:58:35;;;;;;;15.57;8.03;;;6.50;99.90;;;;;;10352994;28;20344;-70
2023/01/31 12:03:36;;;;;;;20.63;8.70;;;6.30;99.90;;;;;;10351033;28;20230;-70
2023/01/31 12:08:41;;;;;;;16.60;8.23;;;6.20;99.90;;;;;;10355108;28;20222;-69
2023/01/31 12:13:46;;;;;;;13.57;7.90;;;6.40;99.90;;;;;;10345880;28;20340;-69
2023/01/31 12:19:10;;;;;;;15.50;8.20;;;6.60;99.90;;;;;;10355130;28;20308;-69
2023/01/31 12:24:21;;;;;;;18.43;8.53;;;6.80;99.90;;;;;;10353960;28;20306;-68
2023/01/31 12:29:54;;;;;;;19.93;8.17;;;6.70;99.90;;;;;;10356850;28;20237;-69
2023/01/31 12:35:16;;;;;;;19.27;7.73;;;6.60;99.90;;;;;;10355574;28;20247;-69
2023/01/31 12:40:20;;;;;;;21.00;7.50;;;6.50;99.90;;;;;;10353081;28;20216;-68
2023/01/31 12:45:29;;;;;;;21.10;7.30;;;6.40;99.90;;;;;;10354879;28;20204;-67
2023/01/31 12:50:43;;;;;;;14.33;6.90;;;6.30;99.90;;;;;;10359411;28;20264;-70
2023/01/31 12:56:06;;;;;;;13.73;6.73;;;6.20;99.90;;;;;;10351217;28;20682;-68
2023/01/31 13:01:37;;;;;;;16.53;6.93;;;6.10;99.90;;;;;;10334058;28;20365;-68
2023/01/31 13:06:44;;;;;;;17.17;7.30;;;6.10;99.90;;;;;;10339404;28;20298;-68
2023/01/31 13:12:23;;;;;;;15.83;7.77;;;6.10;99.90;;;;;;10350012;28;20224;-68
2023/01/31 13:17:27;;;;;;;15.93;7.07;;;6.20;99.90;;;;;;10351076;28;20220;-68
2023/01/31 13:22:35;;;;;;;14.67;7.10;;;6.20;99.90;;;;;;10345192;28;20225;-68
2023/01/31 13:27:43;;;;;;;15.70;7.23;;;6.20;99.90;;;;;;10343883;28;20253;-68
2023/01/31 13:32:51;;;;;;;17.87;7.13;;;6.20;99.90;;;;;;10349650;28;20261;-68
2023/01/31 13:37:58;;;;;;;13.70;6.80;;;6.20;99.90;;;;;;10347925;28;20661;-67
2023/01/31 13:43:05;;;;;;;15.60;7.40;;;6.20;99.90;;;;;;10353154;28;20226;-67
2023/01/31 13:48:24;;;;;;;14.40;7.37;;;6.20;99.90;;;;;;10352866;28;20218;-69
2023/01/31 13:53:48;;;;;;;17.87;7.73;;;6.10;99.90;;;;;;10351352;28;20224;-69
2023/01/31 13:58:50;;;;;;;13.43;7.13;;;6.10;99.90;;;;;;10355885;28;20217;-69
2023/01/31 14:04:13;;;;;;;12.70;7.37;;;6.20;99.90;;;;;;10354128;28;20279;-69
2023/01/31 14:09:26;;;;;;;12.97;7.07;;;6.20;99.90;;;;;;10343983;28;20226;-68
2023/01/31 14:14:40;;;;;;;15.33;7.67;;;6.20;99.90;;;;;;10348754;28;20222;-68
2023/01/31 14:19:43;;;;;;;14.43;7.37;;;6.10;99.90;;;;;;10343830;28;20241;-68
2023/01/31 14:24:48;;;;;;;17.83;7.20;;;6.10;99.90;;;;;;10340449;28;20225;-69
2023/01/31 14:30:10;;;;;;;11.20;7.43;;;6.10;99.90;;;;;;10343304;28;20305;-68
2023/01/31 14:35:13;;;;;;;12.83;7.57;;;6.10;99.90;;;;;;10342532;28;20218;-68
2023/01/31 14:40:26;;;;;;;14.67;8.13;;;6.10;99.90;;;;;;10347073;28;20180;-68
2023/01/31 14:46:00;;;;;;;13.70;7.73;;;6.10;99.90;;;;;;10353618;28;20218;-68
2023/01/31 14:51:19;;;;;;;11.27;7.47;;;6.10;99.90;;;;;;10350599;28;20210;-69
2023/01/31 14:56:39;;;;;;;14.43;7.90;;;6.00;99.90;;;;;;10363816;28;20229;-69
2023/01/31 15:01:39;;;;;;;14.33;8.40;;;6.00;99.90;;;;;;10351343;28;20221;-68
2023/01/31 15:06:42;;;;;;;18.07;9.27;;;5.80;99.90;;;;;;10355810;28;20229;-68
2023/01/31 15:11:46;;;;;;;18.13;9.37;;;5.70;99.90;;;;;;10345781;28;20227;-68
2023/01/31 15:16:53;;;;;;;21.33;10.70;;;5.60;99.90;;;;;;10362503;28;20724;-69
2023/01/31 15:22:02;;;;;;;19.87;9.73;;;5.50;99.90;;;;;;10341806;28;20217;-69
2023/01/31 15:27:10;;;;;;;16.60;9.93;;;5.30;99.90;;;;;;10345288;28;20292;-69
2023/01/31 15:32:23;;;;;;;22.03;11.63;;;5.20;99.90;;;;;;10363215;28;20229;-69
2023/01/31 15:37:30;;;;;;;18.37;11.13;;;5.20;99.90;;;;;;10348156;28;20218;-69
2023/01/31 15:42:33;;;;;;;20.07;10.93;;;5.10;99.90;;;;;;10354415;28;20239;-68
2023/01/31 15:47:33;;;;;;;19.33;11.10;;;5.10;99.90;;;;;;10346572;28;20235;-69
2023/01/31 15:52:34;;;;;;;23.20;12.00;;;5.00;99.90;;;;;;10350322;28;20257;-69
2023/01/31 15:57:54;;;;;;;17.20;10.73;;;5.00;99.90;;;;;;10352700;28;20257;-70
2023/01/31 16:03:01;;;;;;;18.97;11.60;;;5.00;99.90;;;;;;10331267;28;20247;-68
2023/01/31 16:08:04;;;;;;;20.73;11.23;;;5.00;99.90;;;;;;10332299;28;20232;-68
2023/01/31 16:13:08;;;;;;;21.20;12.20;;;5.00;99.90;;;;;;10355581;28;20226;-69
2023/01/31 16:18:11;;;;;;;22.80;11.13;;;5.10;99.90;;;;;;10350181;28;20223;-69
2023/01/31 16:23:30;;;;;;;17.83;10.87;;;5.10;99.90;;;;;;10354672;28;20318;-70
2023/01/31 16:28:53;;;;;;;17.27;10.70;;;5.20;99.90;;;;;;10352847;28;20236;-69
2023/01/31 16:33:57;;;;;;;21.67;11.33;;;5.20;99.90;;;;;;10326440;28;20322;-70
2023/01/31 16:39:03;;;;;;;25.20;11.20;;;5.20;99.90;;;;;;10342073;28;20235;-68
2023/01/31 16:44:05;;;;;;;17.27;10.53;;;5.20;99.90;;;;;;10343750;28;20292;-72
2023/01/31 16:49:20;;;;;;;22.53;11.07;;;5.30;99.90;;;;;;10343422;28;20240;-71
2023/01/31 16:54:29;;;;;;;18.73;10.30;;;5.30;99.90;;;;;;10342497;28;20239;-71
2023/01/31 16:59:33;;;;;;;18.23;9.23;;;5.30;99.90;;;;;;10344265;28;20220;-71
2023/01/31 17:04:38;;;;;;;16.37;8.27;;;5.40;99.90;;;;;;10344461;28;20217;-69
2023/01/31 17:09:38;;;;;;;15.07;8.27;;;5.50;99.90;;;;;;10342041;28;20218;-70
2023/01/31 17:14:39;;;;;;;13.50;7.60;;;5.50;99.90;;;;;;10347834;28;20256;-70
2023/01/31 17:19:40;;;;;;;15.83;8.07;;;5.60;99.90;;;;;;10337575;28;20223;-70
2023/01/31 17:24:40;;;;;;;18.50;7.50;;;5.60;99.90;;;;;;10326513;28;20692;-69
2023/01/31 17:29:42;;;;;;;15.27;6.90;;;5.60;99.90;;;;;;10334783;28;20217;-68
2023/01/31 17:34:44;;;;;;;13.67;6.57;;;5.60;99.90;;;;;;10345580;28;20236;-68
2023/01/31 17:39:45;;;;;;;10.83;7.10;;;5.60;99.90;;;;;;10327181;28;20604;-70
2023/01/31 17:44:45;;;;;;;11.67;6.30;;;5.60;99.90;;;;;;10336894;28;20229;-69
2023/01/31 17:49:46;;;;;;;13.57;6.80;;;5.70;99.90;;;;;;10340376;28;20247;-69
2023/01/31 17:54:47;;;;;;;11.73;6.37;;;5.70;99.90;;;;;;10331384;28;20259;-65
2023/01/31 17:59:48;;;;;;;10.33;7.07;;;5.80;99.90;;;;;;10335344;28;20308;-67
2023/01/31 18:04:48;;;;;;;9.70;6.30;;;5.80;99.90;;;;;;10332873;28;20216;-65
2023/01/31 18:09:49;;;;;;;10.73;6.73;;;5.80;99.90;;;;;;10344375;28;20218;-65
2023/01/31 18:14:50;;;;;;;10.33;7.00;;;5.80;99.90;;;;;;10338562;28;20218;-64
2023/01/31 18:19:50;;;;;;;15.93;7.03;;;5.70;99.90;;;;;;10332264;28;20285;-65
2023/01/31 18:24:52;;;;;;;14.80;9.87;;;5.70;99.90;;;;;;10349615;28;20214;-67
2023/01/31 18:29:55;;;;;;;13.83;7.47;;;5.70;99.90;;;;;;10332792;28;20249;-68
2023/01/31 18:34:56;;;;;;;12.30;6.37;;;5.70;99.90;;;;;;10351318;28;20228;-68
2023/01/31 18:39:56;;;;;;;9.33;6.13;;;5.70;99.90;;;;;;10350859;28;20218;-68
2023/01/31 18:44:57;;;;;;;9.37;5.80;;;5.70;99.90;;;;;;10350299;28;20225;-69
2023/01/31 18:49:57;;;;;;;12.73;5.77;;;5.70;99.90;;;;;;10361548;28;20749;-68
2023/01/31 18:54:58;;;;;;;9.43;5.90;;;5.70;99.90;;;;;;10342706;28;20225;-68
2023/01/31 18:59:58;;;;;;;9.87;5.30;;;5.80;99.90;;;;;;10354099;28;20597;-67
2023/01/31 19:05:00;;;;;;;9.57;5.80;;;5.80;99.90;;;;;;10358642;28;20210;-67
2023/01/31 19:10:01;;;;;;;8.07;5.40;;;5.80;99.90;;;;;;10352932;28;20625;-68
2023/01/31 19:15:01;;;;;;;6.40;4.90;;;5.80;99.90;;;;;;10351875;28;20272;-67
2023/01/31 19:20:09;;;;;;;6.00;4.63;;;5.90;99.90;;;;;;10357320;28;20705;-68
2023/01/31 19:25:09;;;;;;;7.17;4.33;;;5.80;99.90;;;;;;10353186;28;20218;-68
2023/01/31 19:30:11;;;;;;;6.73;4.27;;;5.90;99.90;;;;;;10354538;28;20524;-69
2023/01/31 19:35:11;;;;;;;5.43;3.93;;;5.90;99.90;;;;;;10348864;28;20247;-68
2023/01/31 19:40:12;;;;;;;6.23;4.00;;;6.00;99.90;;;;;;10345667;28;20278;-70
2023/01/31 19:45:13;;;;;;;5.57;4.33;;;6.00;99.90;;;;;;10337947;28;20293;-70
2023/01/31 19:50:13;;;;;;;9.10;4.70;;;5.90;99.90;;;;;;10348207;28;20283;-69
2023/01/31 19:55:14;;;;;;;5.63;4.30;;;6.00;99.90;;;;;;10338833;28;20283;-69
2023/01/31 20:00:15;;;;;;;7.17;4.27;;;6.00;99.90;;;;;;10351014;28;20563;-69
2023/01/31 20:05:15;;;;;;;8.70;4.57;;;5.90;99.90;;;;;;10348763;28;20178;-69
2023/01/31 20:10:16;;;;;;;6.70;4.30;;;5.90;99.90;;;;;;10346096;28;20203;-67
2023/01/31 20:15:16;;;;;;;5.90;4.47;;;5.90;99.90;;;;;;10358226;28;20601;-70
2023/01/31 20:20:17;;;;;;;5.20;3.57;;;6.00;99.90;;;;;;10354341;28;20285;-69
2023/01/31 20:25:19;;;;;;;5.63;3.73;;;6.00;99.90;;;;;;10353661;28;20177;-70
2023/01/31 20:30:21;;;;;;;8.93;3.60;;;6.00;99.90;;;;;;10344770;28;20186;-70
2023/01/31 20:35:22;;;;;;;7.03;4.07;;;6.00;99.90;;;;;;10352387;28;20210;-71
2023/01/31 20:40:23;;;;;;;6.03;3.93;;;6.00;99.90;;;;;;10360654;28;20247;-70
2023/01/31 20:45:29;;;;;;;9.10;4.97;;;6.00;99.90;;;;;;10343484;28;21979;-70
2023/01/31 20:50:30;;;;;;;7.80;4.27;;;6.00;99.90;;;;;;10357046;28;20583;-69
2023/01/31 20:55:31;;;;;;;6.87;4.40;;;6.00;99.90;;;;;;10352401;28;20226;-71
2023/01/31 21:00:31;;;;;;;8.63;4.23;;;6.00;99.90;;;;;;10344222;28;20228;-70
2023/01/31 21:05:37;;;;;;;7.50;3.77;;;6.00;99.90;;;;;;10345580;28;20217;-70
2023/01/31 21:10:39;;;;;;;6.70;3.97;;;6.00;99.90;;;;;;10343997;28;20217;-70
2023/01/31 21:15:55;;;;;;;4.80;3.50;;;6.00;99.90;;;;;;10350647;28;20261;-68
2023/01/31 21:20:56;;;;;;;5.80;3.70;;;6.00;99.90;;;;;;10351305;28;20220;-69
2023/01/31 21:26:05;;;;;;;3.97;3.30;;;6.00;99.90;;;;;;10342377;28;20228;-69
2023/01/31 21:31:08;;;;;;;3.87;3.37;;;6.10;99.90;;;;;;10334164;28;20587;-70
2023/01/31 21:36:10;;;;;;;4.73;3.17;;;6.10;99.90;;;;;;10334729;28;20221;-69
2023/01/31 21:46:31;;;;;;;3.60;3.07;;;6.10;99.90;;;;;;10351318;28;20234;-70
2023/01/31 21:51:31;;;;;;;8.57;2.70;;;6.20;99.90;;;;;;10341694;28;20217;-69
2023/01/31 21:56:32;;;;;;;3.80;3.40;;;6.20;99.90;;;;;;10345114;28;20210;-70
2023/01/31 22:01:34;;;;;;;5.37;2.90;;;6.20;99.90;;;;;;10359061;28;20304;-71
2023/01/31 22:06:40;;;;;;;6.00;3.23;;;6.10;99.90;;;;;;10359583;28;20214;-68
2023/01/31 22:11:41;;;;;;;7.13;3.10;;;6.10;99.90;;;;;;10357155;28;20233;-68
2023/01/31 22:16:45;;;;;;;4.60;3.17;;;6.10;99.90;;;;;;10357420;28;20217;-71
2023/01/31 22:21:48;;;;;;;3.87;3.47;;;6.10;99.90;;;;;;10350973;28;20298;-69
2023/01/31 22:26:50;;;;;;;4.53;2.97;;;6.20;99.90;;;;;;10353790;28;20217;-71
2023/01/31 22:31:53;;;;;;;6.27;3.60;;;6.20;99.90;;;;;;10352793;28;20221;-69
2023/01/31 22:36:54;;;;;;;4.80;3.23;;;6.20;99.90;;;;;;10350105;28;20312;-69
2023/01/31 22:41:54;;;;;;;4.93;3.60;;;6.10;99.90;;;;;;10349390;28;20229;-68
2023/01/31 22:46:55;;;;;;;5.67;3.73;;;6.10;99.90;;;;;;10351680;28;20565;-68
2023/01/31 22:51:55;;;;;;;3.67;3.37;;;6.10;99.90;;;;;;10354806;28;20595;-69
2023/01/31 22:56:56;;;;;;;4.90;3.33;;;6.10;99.90;;;;;;10358836;28;20228;-70
2023/01/31 23:01:56;;;;;;;6.77;3.50;;;6.10;99.90;;;;;;10354617;28;20209;-70
2023/01/31 23:06:57;;;;;;;4.20;3.53;;;6.10;99.90;;;;;;10357508;28;20707;-69
2023/01/31 23:11:58;;;;;;;4.87;3.60;;;6.10;99.90;;;;;;10356377;28;20229;-68
2023/01/31 23:22:17;;;;;;;5.83;3.87;;;6.10;99.90;;;;;;10362690;28;20213;-70
2023/01/31 23:27:18;;;;;;;4.73;3.93;;;6.00;99.90;;;;;;10358104;28;20308;-69
2023/01/31 23:32:19;;;;;;;7.37;4.30;;;6.00;99.90;;;;;;10349695;28;20728;-69
2023/01/31 23:37:21;;;;;;;7.53;4.60;;;5.90;99.90;;;;;;10354003;28;20220;-69
2023/01/31 23:42:22;;;;;;;6.63;4.33;;;5.90;99.90;;;;;;10351494;28;20222;-70
2023/01/31 23:47:22;;;;;;;4.83;3.80;;;6.00;99.90;;;;;;10345072;28;20434;-68
2023/01/31 23:52:23;;;;;;;5.97;4.27;;;6.00;99.90;;;;;;10352268;28;20225;-69
2023/01/31 23:57:24;;;;;;;6.77;4.27;;;6.00;99.90;;;;;;10348337;28;20308;-70
